createdAt,value
2022-10-01T00:00:48.458Z,0.00
2022-10-01T00:01:48.494Z,0.00
2022-10-01T00:02:48.488Z,0.00
2022-10-01T00:03:48.439Z,0.00
2022-10-01T00:04:48.423Z,0.00
2022-10-01T00:05:48.454Z,0.00
2022-10-01T00:06:48.416Z,0.00
2022-10-01T00:07:48.431Z,0.00
2022-10-01T00:08:48.362Z,0.00
2022-10-01T00:09:48.334Z,0.00
2022-10-01T00:10:48.325Z,0.00
2022-10-01T00:11:48.352Z,0.00
2022-10-01T00:12:48.337Z,0.00
2022-10-01T00:13:48.343Z,0.00
2022-10-01T00:14:48.315Z,0.00
2022-10-01T00:15:48.296Z,0.00
2022-10-01T00:16:48.482Z,0.00
2022-10-01T00:17:48.272Z,0.00
2022-10-01T00:18:48.426Z,0.00
2022-10-01T00:19:48.307Z,0.00
2022-10-01T00:20:48.266Z,0.00
2022-10-01T00:21:48.212Z,0.00
2022-10-01T00:22:48.223Z,0.00
2022-10-01T00:23:48.208Z,0.00
2022-10-01T00:24:48.250Z,0.00
2022-10-01T00:25:48.237Z,0.00
2022-10-01T00:26:48.202Z,0.00
2022-10-01T00:27:48.193Z,0.00
2022-10-01T00:28:48.130Z,0.00
2022-10-01T00:29:48.115Z,0.00
2022-10-01T00:30:48.243Z,0.00
2022-10-01T00:31:48.252Z,0.00
2022-10-01T00:32:48.104Z,0.00
2022-10-01T00:33:48.807Z,0.00
2022-10-01T00:34:48.117Z,0.00
2022-10-01T00:35:48.148Z,0.00
2022-10-01T00:36:48.094Z,0.00
2022-10-01T00:37:48.427Z,0.00
2022-10-01T00:38:48.128Z,0.00
2022-10-01T00:39:48.048Z,0.00
2022-10-01T00:40:48.002Z,0.00
2022-10-01T00:41:48.029Z,0.00
2022-10-01T00:42:48.176Z,0.00
2022-10-01T00:43:48.005Z,0.00
2022-10-01T00:44:47.998Z,0.00
2022-10-01T00:45:48.222Z,0.00
2022-10-01T00:46:47.985Z,0.00
2022-10-01T00:47:47.957Z,0.00
2022-10-01T00:48:47.917Z,0.00
2022-10-01T00:49:47.918Z,0.00
2022-10-01T00:50:48.352Z,0.00
2022-10-01T00:51:47.895Z,0.00
2022-10-01T00:52:47.927Z,0.00
2022-10-01T00:53:47.900Z,0.00
2022-10-01T00:54:47.893Z,0.00
2022-10-01T00:55:47.895Z,0.00
2022-10-01T00:56:47.835Z,0.00
2022-10-01T00:57:47.862Z,0.00
2022-10-01T00:58:47.857Z,0.00
2022-10-01T00:59:47.844Z,0.00
2022-10-01T01:00:47.855Z,0.00
2022-10-01T01:01:47.897Z,0.00
2022-10-01T01:02:47.865Z,0.00
2022-10-01T01:03:47.824Z,0.00
2022-10-01T01:04:47.794Z,0.00
2022-10-01T01:05:47.758Z,0.00
2022-10-01T01:06:47.767Z,0.00
2022-10-01T01:07:47.783Z,0.00
2022-10-01T01:08:47.719Z,0.00
2022-10-01T01:09:47.725Z,0.00
2022-10-01T01:10:47.722Z,0.00
2022-10-01T01:11:47.748Z,0.00
2022-10-01T01:12:47.704Z,0.00
2022-10-01T01:13:47.689Z,0.00
2022-10-01T01:14:47.697Z,0.00
2022-10-01T01:15:47.722Z,0.00
2022-10-01T01:16:47.668Z,0.00
2022-10-01T01:17:47.667Z,0.00
2022-10-01T01:18:47.661Z,0.00
2022-10-01T01:19:47.596Z,0.00
2022-10-01T01:20:47.612Z,0.00
2022-10-01T01:21:47.609Z,0.00
2022-10-01T01:22:47.584Z,0.00
2022-10-01T01:23:47.602Z,0.00
2022-10-01T01:24:47.531Z,0.00
2022-10-01T01:25:47.553Z,0.00
2022-10-01T01:26:47.523Z,0.00
2022-10-01T01:27:47.562Z,0.00
2022-10-01T01:28:47.516Z,0.00
2022-10-01T01:29:47.517Z,0.00
2022-10-01T01:30:47.541Z,0.00
2022-10-01T01:31:47.519Z,0.00
2022-10-01T01:32:47.593Z,0.00
2022-10-01T01:33:47.481Z,0.00
2022-10-01T01:34:47.453Z,0.00
2022-10-01T01:35:47.449Z,0.00
2022-10-01T01:36:47.450Z,0.00
2022-10-01T01:37:47.411Z,0.00
2022-10-01T01:38:47.402Z,0.00
2022-10-01T01:39:47.454Z,0.00
2022-10-01T01:40:47.389Z,0.00
2022-10-01T01:41:47.349Z,0.00
2022-10-01T01:42:47.378Z,0.00
2022-10-01T01:43:47.549Z,0.00
2022-10-01T01:44:47.329Z,0.00
2022-10-01T01:45:47.404Z,0.00
2022-10-01T01:46:47.326Z,0.00
2022-10-01T01:47:47.317Z,0.00
2022-10-01T01:48:47.299Z,0.00
2022-10-01T01:49:47.304Z,0.00
2022-10-01T01:50:47.397Z,0.00
2022-10-01T01:51:47.261Z,0.00
2022-10-01T01:52:47.559Z,0.00
2022-10-01T01:53:47.253Z,0.00
2022-10-01T01:54:47.225Z,0.00
2022-10-01T01:55:47.216Z,0.00
2022-10-01T01:56:47.257Z,0.00
2022-10-01T01:57:47.425Z,0.00
2022-10-01T01:58:47.210Z,0.00
2022-10-01T01:59:47.173Z,0.00
2022-10-01T02:00:47.147Z,0.00
2022-10-01T02:01:47.298Z,0.00
2022-10-01T02:02:47.295Z,0.00
2022-10-01T02:03:47.156Z,0.00
2022-10-01T02:04:47.151Z,0.00
2022-10-01T02:05:47.132Z,0.00
2022-10-01T02:06:47.072Z,0.00
2022-10-01T02:07:47.086Z,0.00
2022-10-01T02:08:47.122Z,0.00
2022-10-01T02:09:47.050Z,0.00
2022-10-01T02:10:47.047Z,0.00
2022-10-01T02:11:47.059Z,0.00
2022-10-01T02:12:47.498Z,0.00
2022-10-01T02:13:47.050Z,0.00
2022-10-01T02:14:47.011Z,0.00
2022-10-01T02:15:47.154Z,0.00
2022-10-01T02:16:47.019Z,0.00
2022-10-01T02:17:46.950Z,0.00
2022-10-01T02:18:47.002Z,0.00
2022-10-01T02:19:46.957Z,0.00
2022-10-01T02:20:47.021Z,0.00
2022-10-01T02:21:46.955Z,0.00
2022-10-01T02:22:46.946Z,0.00
2022-10-01T02:23:46.932Z,0.00
2022-10-01T02:24:46.963Z,0.00
2022-10-01T02:25:46.879Z,0.00
2022-10-01T02:26:46.975Z,0.00
2022-10-01T02:27:46.894Z,0.00
2022-10-01T02:28:46.872Z,0.00
2022-10-01T02:29:47.273Z,0.00
2022-10-01T02:30:46.972Z,0.00
2022-10-01T02:31:46.821Z,0.00
2022-10-01T02:32:46.820Z,0.00
2022-10-01T02:36:08.951Z,0.00
2022-10-01T02:39:30.949Z,0.00
2022-10-01T02:40:30.960Z,0.00
2022-10-01T02:41:31.353Z,0.00
2022-10-01T02:42:30.997Z,0.00
2022-10-01T02:43:30.929Z,0.00
2022-10-01T02:44:30.894Z,0.00
2022-10-01T02:45:30.961Z,0.00
2022-10-01T02:46:30.866Z,0.00
2022-10-01T02:47:30.824Z,0.00
2022-10-01T02:48:30.834Z,0.00
2022-10-01T02:49:31.146Z,0.00
2022-10-01T02:50:30.845Z,0.00
2022-10-01T02:51:31.023Z,0.00
2022-10-01T02:52:30.789Z,0.00
2022-10-01T02:53:30.890Z,0.00
2022-10-01T02:54:30.750Z,0.00
2022-10-01T02:55:30.746Z,0.00
2022-10-01T02:56:30.722Z,0.00
2022-10-01T02:57:30.728Z,0.00
2022-10-01T02:58:30.780Z,0.00
2022-10-01T02:59:30.742Z,0.00
2022-10-01T03:00:30.797Z,0.00
2022-10-01T03:01:30.850Z,0.00
2022-10-01T03:02:30.860Z,0.00
2022-10-01T03:03:30.766Z,0.00
2022-10-01T03:04:30.745Z,0.00
2022-10-01T03:05:30.713Z,0.00
2022-10-01T03:06:30.764Z,0.00
2022-10-01T03:07:30.666Z,0.00
2022-10-01T03:08:30.672Z,0.00
2022-10-01T03:09:30.682Z,0.00
2022-10-01T03:10:30.633Z,0.00
2022-10-01T03:11:30.995Z,0.00
2022-10-01T03:12:30.565Z,0.00
2022-10-01T03:13:30.627Z,0.00
2022-10-01T03:14:30.609Z,0.00
2022-10-01T03:15:30.634Z,0.00
2022-10-01T03:16:30.615Z,0.00
2022-10-01T03:17:30.526Z,0.00
2022-10-01T03:18:30.537Z,0.00
2022-10-01T03:19:30.533Z,0.00
2022-10-01T03:20:30.535Z,0.00
2022-10-01T03:21:30.977Z,0.00
2022-10-01T03:22:30.517Z,0.00
2022-10-01T03:23:30.518Z,0.00
2022-10-01T03:24:43.758Z,0.00
2022-10-01T03:25:31.233Z,0.00
2022-10-01T03:26:41.881Z,0.00
2022-10-01T03:27:31.092Z,0.00
2022-10-01T03:28:31.097Z,0.00
2022-10-01T03:29:31.176Z,0.00
2022-10-01T03:30:31.121Z,0.00
2022-10-01T03:31:31.212Z,0.00
2022-10-01T03:32:31.027Z,0.00
2022-10-01T03:33:31.039Z,0.00
2022-10-01T03:34:30.886Z,0.00
2022-10-01T03:35:30.874Z,0.00
2022-10-01T03:36:31.077Z,0.00
2022-10-01T03:37:31.074Z,0.00
2022-10-01T03:38:30.980Z,0.00
2022-10-01T03:39:31.097Z,0.00
2022-10-01T03:40:32.292Z,0.00
2022-10-01T03:41:31.490Z,0.00
2022-10-01T03:42:32.224Z,0.00
2022-10-01T03:43:31.334Z,0.00
2022-10-01T04:05:30.191Z,0.00
2022-10-01T04:13:58.737Z,0.00
2022-10-01T04:14:57.895Z,0.00
2022-10-01T04:15:58.161Z,0.00
2022-10-01T04:16:57.686Z,0.00
2022-10-01T04:17:57.678Z,0.00
2022-10-01T04:18:58.067Z,0.00
2022-10-01T04:19:57.554Z,0.00
2022-10-01T04:20:57.534Z,0.00
2022-10-01T04:21:57.607Z,0.00
2022-10-01T04:22:57.845Z,0.00
2022-10-01T04:23:57.534Z,0.00
2022-10-01T04:24:57.756Z,0.00
2022-10-01T04:25:57.758Z,0.00
2022-10-01T04:26:57.527Z,0.00
2022-10-01T04:27:57.582Z,0.00
2022-10-01T04:28:57.474Z,0.00
2022-10-01T04:29:57.490Z,0.00
2022-10-01T04:30:58.334Z,0.00
2022-10-01T04:31:57.465Z,0.00
2022-10-01T04:33:00.418Z,0.00
2022-10-01T04:33:57.927Z,0.00
2022-10-01T04:34:57.803Z,0.00
2022-10-01T04:35:58.229Z,0.00
2022-10-01T04:36:58.804Z,0.00
2022-10-01T04:37:58.080Z,0.00
2022-10-01T04:39:01.645Z,0.00
2022-10-01T04:39:58.328Z,0.00
2022-10-01T04:40:57.655Z,0.00
2022-10-01T04:41:57.525Z,0.00
2022-10-01T04:43:10.574Z,0.00
2022-10-01T04:43:58.707Z,0.00
2022-10-01T04:44:58.103Z,0.00
2022-10-01T04:45:57.453Z,0.00
2022-10-01T04:46:57.492Z,0.00
2022-10-01T04:47:57.966Z,0.00
2022-10-01T04:49:03.516Z,0.00
2022-10-01T04:49:57.847Z,0.00
2022-10-01T04:50:57.464Z,0.00
2022-10-01T04:51:57.315Z,0.00
2022-10-01T04:53:19.119Z,0.00
2022-10-01T04:53:57.297Z,0.00
2022-10-01T04:54:57.712Z,0.00
2022-10-01T04:55:57.387Z,0.00
2022-10-01T04:56:57.428Z,0.00
2022-10-01T04:57:57.765Z,0.00
2022-10-01T04:58:57.625Z,0.00
2022-10-01T05:00:02.064Z,0.00
2022-10-01T05:01:02.014Z,0.00
2022-10-01T05:20:51.630Z,8.00
2022-10-01T05:21:44.798Z,8.00
2022-10-01T05:22:44.504Z,8.00
2022-10-01T05:23:44.976Z,12.00
2022-10-01T05:24:44.498Z,12.00
2022-10-01T05:25:44.634Z,12.00
2022-10-01T05:26:44.601Z,12.00
2022-10-01T05:27:44.959Z,16.00
2022-10-01T05:28:44.751Z,16.00
2022-10-01T05:29:44.806Z,20.00
2022-10-01T05:30:44.666Z,20.00
2022-10-01T05:31:44.778Z,20.00
2022-10-01T05:32:45.114Z,24.00
2022-10-01T05:33:45.030Z,20.00
2022-10-01T05:34:44.621Z,16.00
2022-10-01T05:35:44.304Z,20.00
2022-10-01T05:36:44.740Z,20.00
2022-10-01T05:37:44.685Z,32.00
2022-10-01T05:38:44.967Z,36.00
2022-10-01T05:39:44.903Z,44.00
2022-10-01T05:40:44.406Z,40.00
2022-10-01T05:41:44.292Z,48.00
2022-10-01T05:42:45.104Z,52.00
2022-10-01T05:43:45.926Z,56.00
2022-10-01T05:44:44.542Z,64.00
2022-10-01T05:45:44.493Z,68.00
2022-10-01T05:46:44.171Z,64.00
2022-10-01T05:47:44.324Z,68.00
2022-10-01T05:48:44.087Z,76.00
2022-10-01T05:49:44.054Z,84.00
2022-10-01T05:50:44.091Z,88.00
2022-10-01T05:51:44.192Z,92.00
2022-10-01T05:52:44.149Z,100.00
2022-10-01T05:53:49.551Z,104.00
2022-10-01T05:54:45.229Z,108.00
2022-10-01T05:55:44.112Z,100.00
2022-10-01T05:56:44.229Z,96.00
2022-10-01T05:57:44.039Z,104.00
2022-10-01T05:58:44.165Z,120.00
2022-10-01T06:02:02.392Z,144.00
2022-10-01T06:03:03.445Z,168.00
2022-10-01T06:04:03.082Z,180.00
2022-10-01T06:05:09.111Z,184.00
2022-10-01T06:06:06.637Z,176.00
2022-10-01T06:07:11.572Z,184.00
2022-10-01T06:08:02.547Z,176.00
2022-10-01T06:09:04.972Z,196.00
2022-10-01T06:10:25.551Z,204.00
2022-10-01T06:11:12.060Z,204.00
2022-10-01T06:12:04.704Z,216.00
2022-10-01T06:13:06.045Z,236.00
2022-10-01T06:14:01.931Z,244.00
2022-10-01T06:15:01.922Z,232.00
2022-10-01T06:16:01.793Z,264.00
2022-10-01T06:17:02.755Z,280.00
2022-10-01T06:18:02.070Z,300.00
2022-10-01T06:19:01.707Z,300.00
2022-10-01T06:20:01.765Z,296.00
2022-10-01T06:21:01.794Z,260.00
2022-10-01T06:24:24.667Z,296.00
2022-10-01T06:25:36.538Z,308.00
2022-10-01T06:34:22.628Z,344.00
2022-10-01T06:35:23.047Z,324.00
2022-10-01T06:36:23.778Z,400.00
2022-10-01T06:37:22.232Z,400.00
2022-10-01T06:38:22.231Z,440.00
2022-10-01T06:39:21.978Z,452.00
2022-10-01T06:40:21.964Z,452.00
2022-10-01T06:41:22.182Z,452.00
2022-10-01T06:42:21.744Z,456.00
2022-10-01T06:43:21.824Z,468.00
2022-10-01T06:44:21.762Z,476.00
2022-10-01T06:45:21.840Z,500.00
2022-10-01T06:46:21.867Z,568.00
2022-10-01T06:47:22.003Z,572.00
2022-10-01T06:48:21.776Z,536.00
2022-10-01T06:49:21.752Z,492.00
2022-10-01T06:50:21.886Z,436.00
2022-10-01T06:51:21.841Z,428.00
2022-10-01T06:52:21.975Z,444.00
2022-10-01T06:53:22.120Z,436.00
2022-10-01T06:54:21.837Z,444.00
2022-10-01T06:55:22.219Z,464.00
2022-10-01T06:56:23.788Z,492.00
2022-10-01T06:57:21.622Z,548.00
2022-10-01T06:58:21.784Z,608.00
2022-10-01T06:59:21.720Z,652.00
2022-10-01T07:00:21.564Z,692.00
2022-10-01T07:01:21.700Z,696.00
2022-10-01T07:02:21.963Z,720.00
2022-10-01T07:03:21.585Z,700.00
2022-10-01T07:04:21.594Z,836.00
2022-10-01T07:05:21.647Z,900.00
2022-10-01T07:06:21.627Z,916.00
2022-10-01T07:07:26.011Z,1020.00
2022-10-01T07:08:22.821Z,1048.00
2022-10-01T07:09:21.993Z,1096.00
2022-10-01T07:10:21.572Z,1048.00
2022-10-01T07:11:21.487Z,936.00
2022-10-01T07:12:21.604Z,848.00
2022-10-01T07:13:21.650Z,888.00
2022-10-01T07:14:21.783Z,892.00
2022-10-01T07:15:21.478Z,936.00
2022-10-01T07:16:21.776Z,988.00
2022-10-01T07:17:21.681Z,968.00
2022-10-01T07:18:21.584Z,1116.00
2022-10-01T07:19:21.669Z,1056.00
2022-10-01T07:20:22.740Z,992.00
2022-10-01T07:21:21.707Z,912.00
2022-10-01T07:22:21.776Z,812.00
2022-10-01T07:23:21.416Z,724.00
2022-10-01T07:24:21.453Z,728.00
2022-10-01T07:25:21.937Z,752.00
2022-10-01T07:26:21.490Z,804.00
2022-10-01T07:27:21.512Z,1088.00
2022-10-01T07:28:21.796Z,1420.00
2022-10-01T07:29:21.902Z,1580.00
2022-10-01T07:30:21.763Z,1560.00
2022-10-01T07:31:21.701Z,1452.00
2022-10-01T07:32:21.649Z,1504.00
2022-10-01T07:33:21.871Z,1428.00
2022-10-01T07:34:22.339Z,1288.00
2022-10-01T07:35:21.235Z,1292.00
2022-10-01T07:36:21.217Z,1320.00
2022-10-01T07:37:21.614Z,1380.00
2022-10-01T07:38:21.500Z,1372.00
2022-10-01T07:39:21.704Z,1272.00
2022-10-01T07:40:21.503Z,996.00
2022-10-01T07:41:21.670Z,936.00
2022-10-01T07:42:21.615Z,928.00
2022-10-01T07:43:21.495Z,1072.00
2022-10-01T07:44:21.542Z,1320.00
2022-10-01T07:45:22.138Z,1156.00
2022-10-01T07:46:25.802Z,1148.00
2022-10-01T07:47:21.627Z,1140.00
2022-10-01T07:48:21.788Z,1076.00
2022-10-01T07:49:22.324Z,1088.00
2022-10-01T07:50:21.374Z,968.00
2022-10-01T07:51:21.409Z,892.00
2022-10-01T07:52:21.074Z,796.00
2022-10-01T07:53:21.815Z,676.00
2022-10-01T07:54:21.058Z,632.00
2022-10-01T07:55:21.299Z,592.00
2022-10-01T07:56:22.045Z,612.00
2022-10-01T07:57:20.986Z,748.00
2022-10-01T07:58:21.362Z,892.00
2022-10-01T07:59:21.464Z,956.00
2022-10-01T08:00:21.649Z,904.00
2022-10-01T08:01:22.060Z,920.00
2022-10-01T08:02:21.578Z,872.00
2022-10-01T08:03:21.525Z,948.00
2022-10-01T08:04:21.861Z,916.00
2022-10-01T08:05:21.094Z,884.00
2022-10-01T08:06:25.387Z,916.00
2022-10-01T08:07:21.474Z,1000.00
2022-10-01T08:08:21.178Z,1104.00
2022-10-01T08:09:22.127Z,1212.00
2022-10-01T08:10:20.809Z,1456.00
2022-10-01T08:11:21.106Z,1656.00
2022-10-01T08:12:21.082Z,2048.00
2022-10-01T08:13:21.961Z,2180.00
2022-10-01T08:14:21.065Z,2176.00
2022-10-01T08:15:21.348Z,1992.00
2022-10-01T08:16:21.004Z,2184.00
2022-10-01T08:17:22.154Z,2528.00
2022-10-01T08:18:21.298Z,2672.00
2022-10-01T08:19:20.975Z,2968.00
2022-10-01T08:20:21.011Z,2852.00
2022-10-01T08:21:21.088Z,2872.00
2022-10-01T08:22:21.345Z,2924.00
2022-10-01T08:23:20.969Z,2460.00
2022-10-01T08:24:20.633Z,2760.00
2022-10-01T08:25:21.167Z,2680.00
2022-10-01T08:26:21.354Z,2972.00
2022-10-01T08:27:21.151Z,3028.00
2022-10-01T08:28:20.788Z,3020.00
2022-10-01T08:29:22.427Z,2752.00
2022-10-01T08:39:22.642Z,3896.00
2022-10-01T08:39:55.628Z,3232.00
2022-10-01T08:47:50.663Z,2748.00
2022-10-01T08:48:53.500Z,2744.00
2022-10-01T08:49:50.364Z,3132.00
2022-10-01T08:51:10.226Z,3416.00
2022-10-01T08:51:49.420Z,3336.00
2022-10-01T08:52:49.365Z,3264.00
2022-10-01T08:53:49.864Z,3556.00
2022-10-01T08:54:49.352Z,4264.00
2022-10-01T08:55:48.940Z,4080.00
2022-10-01T08:56:48.905Z,3644.00
2022-10-01T08:57:49.023Z,3588.00
2022-10-01T08:58:48.893Z,3668.00
2022-10-01T11:40:31.106Z,20672.00
2022-10-01T11:41:30.678Z,18688.00
2022-10-01T11:42:30.663Z,19616.00
2022-10-01T11:43:30.661Z,26944.00
2022-10-01T11:44:30.654Z,34368.00
2022-10-01T11:45:30.638Z,94368.00
2022-10-01T11:46:30.714Z,68608.00
2022-10-01T11:47:30.613Z,34688.00
2022-10-01T11:48:30.616Z,22752.00
2022-10-01T11:49:30.585Z,12680.00
2022-10-01T11:50:30.614Z,9852.00
2022-10-01T11:51:30.587Z,9736.00
2022-10-01T11:52:30.604Z,9324.00
2022-10-01T11:53:30.545Z,8640.00
2022-10-01T11:54:30.530Z,8188.00
2022-10-01T11:55:30.522Z,9268.00
2022-10-01T11:56:30.522Z,11412.00
2022-10-01T11:57:30.524Z,11204.00
2022-10-01T11:58:30.530Z,10300.00
2022-10-01T11:59:30.526Z,10676.00
2022-10-01T12:00:30.490Z,10488.00
2022-10-01T12:01:30.613Z,11220.00
2022-10-01T12:02:30.461Z,11944.00
2022-10-01T12:03:30.447Z,12608.00
2022-10-01T12:04:30.428Z,13804.00
2022-10-01T12:05:30.544Z,16032.00
2022-10-01T12:06:33.777Z,18368.00
2022-10-01T12:07:30.393Z,12964.00
2022-10-01T12:08:30.412Z,12208.00
2022-10-01T12:09:30.392Z,13116.00
2022-10-01T12:10:30.384Z,24640.00
2022-10-01T12:11:30.447Z,37152.00
2022-10-01T12:12:30.365Z,14820.00
2022-10-01T12:13:30.333Z,13172.00
2022-10-01T12:14:30.313Z,12788.00
2022-10-01T12:15:30.316Z,12292.00
2022-10-01T12:16:30.318Z,11828.00
2022-10-01T12:17:30.290Z,11240.00
2022-10-01T12:18:30.333Z,10772.00
2022-10-01T12:19:30.283Z,11328.00
2022-10-01T12:20:30.285Z,11972.00
2022-10-01T12:21:30.251Z,12740.00
2022-10-01T12:22:30.246Z,13964.00
2022-10-01T12:23:30.234Z,15696.00
2022-10-01T12:24:30.208Z,18816.00
2022-10-01T12:25:30.194Z,25856.00
2022-10-01T12:26:30.222Z,39392.00
2022-10-01T12:27:30.222Z,89792.00
2022-10-01T12:28:30.260Z,74816.00
2022-10-01T12:29:30.180Z,87872.00
2022-10-01T12:30:30.155Z,77952.00
2022-10-01T12:31:30.177Z,97952.00
2022-10-01T12:32:30.137Z,107712.00
2022-10-01T12:33:30.137Z,18272.00
2022-10-01T12:34:30.126Z,24000.00
2022-10-01T12:35:31.049Z,18816.00
2022-10-01T12:36:30.154Z,28192.00
2022-10-01T12:37:30.084Z,102784.00
2022-10-01T12:38:30.080Z,103520.00
2022-10-01T12:39:30.062Z,104800.00
2022-10-01T12:40:30.067Z,107552.00
2022-10-01T12:41:30.027Z,43648.00
2022-10-01T12:42:30.482Z,57344.00
2022-10-01T12:43:30.008Z,20256.00
2022-10-01T12:44:30.007Z,24640.00
2022-10-01T12:45:29.998Z,24544.00
2022-10-01T12:46:30.037Z,35456.00
2022-10-01T12:47:29.965Z,66752.00
2022-10-01T12:48:29.981Z,55904.00
2022-10-01T12:49:29.947Z,106624.00
2022-10-01T12:50:30.189Z,33216.00
2022-10-01T12:51:29.919Z,51840.00
2022-10-01T12:52:29.914Z,27392.00
2022-10-01T12:53:29.896Z,74592.00
2022-10-01T12:54:29.892Z,104192.00
2022-10-01T12:55:29.934Z,100608.00
2022-10-01T12:56:30.199Z,64832.00
2022-10-01T12:57:29.872Z,104928.00
2022-10-01T12:58:29.974Z,103808.00
2022-10-01T12:59:29.961Z,22144.00
2022-10-01T13:00:29.848Z,27264.00
2022-10-01T13:01:29.916Z,83232.00
2022-10-01T13:02:29.846Z,97824.00
2022-10-01T13:03:29.813Z,101088.00
2022-10-01T13:04:30.782Z,101952.00
2022-10-01T13:05:29.768Z,104224.00
2022-10-01T13:06:29.792Z,105312.00
2022-10-01T13:07:29.756Z,98304.00
2022-10-01T13:08:29.993Z,28288.00
2022-10-01T13:09:29.739Z,24800.00
2022-10-01T13:10:29.733Z,41472.00
2022-10-01T13:11:29.741Z,35776.00
2022-10-01T13:12:29.707Z,32736.00
2022-10-01T13:13:29.725Z,55520.00
2022-10-01T13:14:29.689Z,31200.00
2022-10-01T13:15:29.666Z,20288.00
2022-10-01T13:16:29.756Z,17408.00
2022-10-01T13:17:34.465Z,15556.00
2022-10-01T13:18:30.701Z,14960.00
2022-10-01T13:19:29.638Z,14688.00
2022-10-01T13:20:29.615Z,13916.00
2022-10-01T13:21:29.662Z,12252.00
2022-10-01T13:22:29.795Z,11572.00
2022-10-01T13:23:29.593Z,10580.00
2022-10-01T13:24:29.615Z,9752.00
2022-10-01T13:25:29.745Z,9428.00
2022-10-01T13:26:29.573Z,9188.00
2022-10-01T13:27:29.548Z,8988.00
2022-10-01T13:28:29.684Z,8144.00
2022-10-01T13:29:29.533Z,6600.00
2022-10-01T13:30:30.046Z,5888.00
2022-10-01T13:31:29.614Z,5412.00
2022-10-01T13:32:29.520Z,4116.00
2022-10-01T13:33:29.505Z,2280.00
2022-10-01T13:34:29.461Z,972.00
2022-10-01T13:35:35.228Z,660.00
2022-10-01T13:36:30.462Z,540.00
2022-10-01T13:37:29.788Z,460.00
2022-10-01T13:38:29.499Z,520.00
2022-10-01T13:39:30.348Z,536.00
2022-10-01T13:40:29.458Z,556.00
2022-10-01T13:41:29.414Z,572.00
2022-10-01T13:42:29.385Z,580.00
2022-10-01T13:43:29.513Z,588.00
2022-10-01T13:44:29.444Z,608.00
2022-10-01T13:45:29.340Z,640.00
2022-10-01T13:46:29.383Z,700.00
2022-10-01T13:47:29.320Z,776.00
2022-10-01T13:48:29.333Z,848.00
2022-10-01T13:49:29.359Z,884.00
2022-10-01T13:50:29.378Z,888.00
2022-10-01T13:51:29.292Z,880.00
2022-10-01T13:52:29.280Z,852.00
2022-10-01T13:53:29.369Z,832.00
2022-10-01T13:54:29.268Z,828.00
2022-10-01T13:55:29.290Z,816.00
2022-10-01T13:56:29.321Z,784.00
2022-10-01T13:57:29.226Z,788.00
2022-10-01T13:58:29.198Z,820.00
2022-10-01T13:59:29.230Z,852.00
2022-10-01T14:00:29.195Z,864.00
2022-10-01T14:01:29.229Z,880.00
2022-10-01T14:02:29.261Z,896.00
2022-10-01T14:03:29.148Z,924.00
2022-10-01T14:04:29.190Z,956.00
2022-10-01T14:05:29.132Z,996.00
2022-10-01T14:06:29.134Z,1028.00
2022-10-01T14:07:29.106Z,1056.00
2022-10-01T14:08:29.110Z,1116.00
2022-10-01T14:09:29.155Z,1176.00
2022-10-01T14:10:29.087Z,1208.00
2022-10-01T14:11:29.073Z,1272.00
2022-10-01T14:12:29.079Z,1376.00
2022-10-01T14:13:29.060Z,1540.00
2022-10-01T14:14:29.045Z,1744.00
2022-10-01T14:15:29.178Z,2012.00
2022-10-01T14:16:29.020Z,2432.00
2022-10-01T14:17:29.009Z,3140.00
2022-10-01T14:18:29.000Z,4236.00
2022-10-01T14:19:29.016Z,5360.00
2022-10-01T14:20:28.983Z,7152.00
2022-10-01T14:21:28.975Z,9336.00
2022-10-01T14:22:28.960Z,20768.00
2022-10-01T14:23:29.055Z,45952.00
2022-10-01T14:24:28.952Z,41312.00
2022-10-01T14:25:28.927Z,57600.00
2022-10-01T14:26:28.908Z,56256.00
2022-10-01T14:27:28.910Z,20736.00
2022-10-01T14:28:28.897Z,20416.00
2022-10-01T14:29:28.866Z,63872.00
2022-10-01T14:30:28.858Z,9748.00
2022-10-01T14:31:28.992Z,7412.00
2022-10-01T14:32:28.841Z,6496.00
2022-10-01T14:33:28.846Z,6108.00
2022-10-01T14:34:28.842Z,6184.00
2022-10-01T14:35:28.904Z,13988.00
2022-10-01T14:36:28.850Z,49728.00
2022-10-01T14:37:28.796Z,129824.00
2022-10-01T14:38:28.793Z,138496.00
2022-10-01T14:39:28.843Z,82560.00
2022-10-01T14:40:28.779Z,70528.00
2022-10-01T14:41:28.985Z,85760.00
2022-10-01T14:42:28.918Z,12672.00
2022-10-01T14:43:28.750Z,25632.00
2022-10-01T14:44:28.704Z,11320.00
2022-10-01T14:45:28.751Z,10240.00
2022-10-01T14:46:29.039Z,10592.00
2022-10-01T14:47:28.679Z,11372.00
2022-10-01T14:48:28.734Z,10932.00
2022-10-01T14:49:28.669Z,14008.00
2022-10-01T14:50:28.650Z,22176.00
2022-10-01T14:51:28.707Z,28384.00
2022-10-01T14:52:28.623Z,27552.00
2022-10-01T14:53:28.629Z,27104.00
2022-10-01T14:54:28.603Z,26656.00
2022-10-01T14:55:28.616Z,26528.00
2022-10-01T14:56:28.586Z,26240.00
2022-10-01T14:57:28.574Z,26016.00
2022-10-01T14:58:28.564Z,25952.00
2022-10-01T14:59:28.552Z,25696.00
2022-10-01T15:00:28.527Z,25440.00
2022-10-01T15:01:28.532Z,25280.00
2022-10-01T15:02:30.011Z,25184.00
2022-10-01T15:03:28.568Z,25152.00
2022-10-01T15:04:28.668Z,25888.00
2022-10-01T15:05:28.558Z,26368.00
2022-10-01T15:06:28.487Z,26112.00
2022-10-01T15:07:28.515Z,25280.00
2022-10-01T15:08:28.465Z,24672.00
2022-10-01T15:09:28.562Z,24512.00
2022-10-01T15:10:28.792Z,24224.00
2022-10-01T15:11:28.428Z,23328.00
2022-10-01T15:12:28.435Z,23584.00
2022-10-01T15:13:28.437Z,23712.00
2022-10-01T15:14:28.394Z,23456.00
2022-10-01T15:15:28.417Z,23232.00
2022-10-01T15:16:28.436Z,22976.00
2022-10-01T15:17:28.401Z,21536.00
2022-10-01T15:18:28.381Z,8248.00
2022-10-01T15:19:28.379Z,6904.00
2022-10-01T15:20:28.389Z,6416.00
2022-10-01T15:21:28.320Z,6692.00
2022-10-01T15:22:28.507Z,16768.00
2022-10-01T15:23:28.302Z,8560.00
2022-10-01T15:24:28.519Z,7480.00
2022-10-01T15:25:28.289Z,7140.00
2022-10-01T15:26:28.628Z,6656.00
2022-10-01T15:27:28.896Z,6152.00
2022-10-01T15:28:28.307Z,5880.00
2022-10-01T15:29:28.239Z,6112.00
2022-10-01T15:30:28.214Z,7704.00
2022-10-01T15:31:28.254Z,9220.00
2022-10-01T15:32:28.204Z,10988.00
2022-10-01T15:33:28.183Z,10000.00
2022-10-01T15:34:28.173Z,10112.00
2022-10-01T15:35:28.164Z,16800.00
2022-10-01T15:36:28.161Z,18208.00
2022-10-01T15:37:28.147Z,19584.00
2022-10-01T15:38:28.148Z,23200.00
2022-10-01T15:39:28.124Z,16032.00
2022-10-01T15:40:28.110Z,10720.00
2022-10-01T15:41:39.884Z,27872.00
2022-10-01T15:42:29.121Z,14040.00
2022-10-01T15:43:28.088Z,36448.00
2022-10-01T15:44:28.936Z,36960.00
2022-10-01T15:45:28.071Z,37760.00
2022-10-01T15:46:28.086Z,40224.00
2022-10-01T15:47:28.032Z,29152.00
2022-10-01T15:48:28.320Z,45600.00
2022-10-01T15:49:28.092Z,48704.00
2022-10-01T15:50:28.016Z,49984.00
2022-10-01T15:51:27.993Z,49600.00
2022-10-01T15:52:27.974Z,49568.00
2022-10-01T15:53:27.971Z,49792.00
2022-10-01T15:54:27.955Z,27968.00
2022-10-01T15:55:27.958Z,39680.00
2022-10-01T15:56:27.932Z,7676.00
2022-10-01T15:57:28.004Z,7116.00
2022-10-01T15:58:27.917Z,7156.00
2022-10-01T15:59:27.897Z,42592.00
2022-10-01T16:00:28.007Z,43936.00
2022-10-01T16:01:27.951Z,43008.00
2022-10-01T16:02:27.914Z,41568.00
2022-10-01T16:03:27.859Z,42432.00
2022-10-01T16:04:27.855Z,41056.00
2022-10-01T16:05:27.847Z,37984.00
2022-10-01T16:06:27.824Z,37600.00
2022-10-01T16:07:27.810Z,36928.00
2022-10-01T16:08:27.800Z,35968.00
2022-10-01T16:09:27.786Z,35968.00
2022-10-01T16:10:27.777Z,35072.00
2022-10-01T16:11:27.769Z,32288.00
2022-10-01T16:12:27.765Z,32800.00
2022-10-01T16:13:28.179Z,31360.00
2022-10-01T16:14:27.743Z,29248.00
2022-10-01T16:15:27.734Z,27680.00
2022-10-01T16:16:27.779Z,26240.00
2022-10-01T16:17:27.707Z,23904.00
2022-10-01T16:18:27.707Z,20128.00
2022-10-01T16:19:27.739Z,6224.00
2022-10-01T16:20:28.234Z,8892.00
2022-10-01T16:21:27.676Z,15680.00
2022-10-01T16:22:27.662Z,7388.00
2022-10-01T16:23:27.666Z,4516.00
2022-10-01T16:24:27.645Z,3916.00
2022-10-01T16:25:27.629Z,3224.00
2022-10-01T16:26:27.620Z,2816.00
2022-10-01T16:27:27.615Z,2564.00
2022-10-01T16:28:27.654Z,2372.00
2022-10-01T16:29:27.886Z,2216.00
2022-10-01T16:30:27.575Z,2100.00